createdAt,value
2017-05-12T00:00:37.636Z,982.66
2017-05-12T00:01:47.994Z,982.66
2017-05-12T00:02:58.030Z,982.6
2017-05-12T00:04:08.417Z,982.6
2017-05-12T00:05:18.760Z,982.62
2017-05-12T00:06:29.096Z,982.62
2017-05-12T00:07:39.499Z,982.64
2017-05-12T00:08:49.844Z,982.64
2017-05-12T00:09:59.886Z,982.68
2017-05-12T00:11:10.241Z,982.64
2017-05-12T00:12:19.973Z,982.66
2017-05-12T00:13:30.006Z,982.67
2017-05-12T00:14:40.378Z,982.65
2017-05-12T00:15:50.414Z,982.69
2017-05-12T00:17:00.767Z,982.73
2017-05-12T00:18:11.118Z,982.66
2017-05-12T00:19:21.457Z,982.71
2017-05-12T00:20:31.495Z,982.72
2017-05-12T00:21:41.221Z,982.69
2017-05-12T00:22:51.256Z,982.71
2017-05-12T00:24:01.618Z,982.73
2017-05-12T00:25:11.645Z,982.74
2017-05-12T00:26:21.681Z,982.76
2017-05-12T00:27:31.718Z,982.76
2017-05-12T00:28:41.750Z,982.79
2017-05-12T00:29:52.123Z,982.78
2017-05-12T00:31:02.489Z,982.79
2017-05-12T00:32:12.516Z,982.83
2017-05-12T00:33:22.872Z,982.82
2017-05-12T00:34:33.211Z,982.84
2017-05-12T00:35:42.932Z,982.87
2017-05-12T00:36:53.283Z,982.86
2017-05-12T00:38:03.360Z,982.89
2017-05-12T00:39:13.390Z,982.93
2017-05-12T00:40:23.737Z,982.89
2017-05-12T00:41:33.764Z,982.89
2017-05-12T00:42:44.164Z,982.92
2017-05-12T00:43:54.206Z,982.95
2017-05-12T00:45:04.562Z,982.96
2017-05-12T00:46:14.912Z,982.91
2017-05-12T00:47:24.333Z,982.89
2017-05-12T00:48:34.681Z,982.93
2017-05-12T00:49:44.713Z,982.9
2017-05-12T00:50:54.429Z,982.93
2017-05-12T00:52:04.141Z,982.93
2017-05-12T00:53:14.493Z,982.94
2017-05-12T00:54:24.831Z,982.89
2017-05-12T00:55:34.867Z,982.94
2017-05-12T00:56:44.908Z,982.96
2017-05-12T00:57:54.945Z,982.97
2017-05-12T00:59:05.050Z,982.98
2017-05-12T01:00:15.404Z,982.98
2017-05-12T01:01:25.746Z,983
2017-05-12T01:02:36.087Z,982.99
2017-05-12T01:03:46.440Z,983.02
2017-05-12T01:04:56.786Z,983.04
2017-05-12T01:06:07.156Z,982.97
2017-05-12T01:07:17.506Z,982.96
2017-05-12T01:08:27.855Z,982.96
2017-05-12T01:09:38.209Z,982.98
2017-05-12T01:10:48.273Z,982.93
2017-05-12T01:11:57.994Z,983
2017-05-12T01:13:08.367Z,982.98
2017-05-12T01:14:18.724Z,982.94
2017-05-12T01:15:28.800Z,982.96
2017-05-12T01:16:39.173Z,983.01
2017-05-12T01:17:49.530Z,982.96
2017-05-12T01:18:59.586Z,982.93
2017-05-12T01:20:09.948Z,983.03
2017-05-12T01:21:20.361Z,983.02
2017-05-12T01:22:30.729Z,983
2017-05-12T01:23:41.085Z,983.02
2017-05-12T01:24:51.149Z,983.01
2017-05-12T01:26:01.188Z,982.98
2017-05-12T01:27:11.233Z,982.99
2017-05-12T01:28:21.583Z,983
2017-05-12T01:29:31.935Z,982.98
2017-05-12T01:30:41.981Z,982.98
2017-05-12T01:31:51.706Z,983.01
2017-05-12T01:33:01.734Z,983.03
2017-05-12T01:34:11.785Z,983.03
2017-05-12T01:35:22.145Z,983.04
2017-05-12T01:36:32.489Z,982.99
2017-05-12T01:37:42.537Z,982.98
2017-05-12T01:38:52.889Z,982.98
2017-05-12T01:40:03.264Z,983.01
2017-05-12T01:41:13.603Z,982.98
2017-05-12T01:42:23.942Z,982.98
2017-05-12T01:43:34.313Z,982.93
2017-05-12T01:44:44.677Z,982.96
2017-05-12T01:45:55.015Z,982.93
2017-05-12T01:47:05.372Z,982.91
2017-05-12T01:48:15.424Z,982.91
2017-05-12T01:49:25.460Z,982.93
2017-05-12T01:50:35.823Z,982.91
2017-05-12T01:51:46.192Z,982.9
2017-05-12T01:52:55.917Z,982.93
2017-05-12T01:54:05.972Z,982.93
2017-05-12T01:55:16.315Z,982.95
2017-05-12T01:56:26.701Z,982.99
2017-05-12T01:57:36.736Z,983.02
2017-05-12T01:58:47.151Z,983.02
2017-05-12T01:59:57.503Z,983.06
2017-05-12T02:01:07.880Z,983.03
2017-05-12T02:02:18.217Z,983.09
2017-05-12T02:03:28.570Z,983.13
2017-05-12T02:04:38.917Z,983.13
2017-05-12T02:05:49.278Z,983.2
2017-05-12T02:06:59.317Z,983.23
2017-05-12T02:08:09.674Z,983.25
2017-05-12T02:09:20.015Z,983.3
2017-05-12T02:10:30.049Z,983.29
2017-05-12T02:11:40.397Z,983.32
2017-05-12T02:12:50.477Z,983.33
2017-05-12T02:14:00.520Z,983.35
2017-05-12T02:15:10.862Z,983.35
2017-05-12T02:16:21.263Z,983.42
2017-05-12T02:17:31.606Z,983.36
2017-05-12T02:18:41.947Z,983.33
2017-05-12T02:19:52.310Z,983.32
2017-05-12T02:21:02.674Z,983.3
2017-05-12T02:22:13.039Z,983.32
2017-05-12T02:23:23.387Z,983.33
2017-05-12T02:24:33.735Z,983.29
2017-05-12T02:25:43.807Z,983.29
2017-05-12T02:26:54.160Z,983.29
2017-05-12T02:28:04.250Z,983.27
2017-05-12T02:29:14.604Z,983.25
2017-05-12T02:30:24.959Z,983.24
2017-05-12T02:31:35.320Z,983.18
2017-05-12T02:32:45.675Z,983.24
2017-05-12T02:33:56.039Z,983.27
2017-05-12T02:35:06.383Z,983.3
2017-05-12T02:36:16.748Z,983.32
2017-05-12T02:37:26.778Z,983.3
2017-05-12T02:38:36.801Z,983.26
2017-05-12T02:39:46.849Z,983.29
2017-05-12T02:40:56.900Z,983.3
2017-05-12T02:42:07.263Z,983.31
2017-05-12T02:43:17.613Z,983.33
2017-05-12T02:44:27.653Z,983.29
2017-05-12T02:45:38.059Z,983.24
2017-05-12T02:46:48.438Z,983.25
2017-05-12T02:47:58.783Z,983.24
2017-05-12T02:49:09.142Z,983.19
2017-05-12T02:50:19.495Z,983.19
2017-05-12T02:51:29.519Z,983.19
2017-05-12T02:52:39.556Z,983.18
2017-05-12T02:53:49.624Z,983.14
2017-05-12T02:54:59.967Z,983.11
2017-05-12T02:56:10.033Z,983.1
2017-05-12T02:57:20.081Z,983.15
2017-05-12T02:58:30.420Z,983.13
2017-05-12T02:59:40.768Z,983.15
2017-05-12T03:00:51.115Z,983.17
2017-05-12T03:02:01.470Z,983.16
2017-05-12T03:32:43.405Z,983.56
2017-05-12T03:33:53.441Z,983.59
2017-05-12T03:35:03.475Z,983.54
2017-05-12T03:36:13.506Z,983.51
2017-05-12T03:37:23.564Z,983.52
2017-05-12T03:38:33.902Z,983.53
2017-05-12T03:39:44.269Z,983.54
2017-05-12T03:40:54.651Z,983.51
2017-05-12T03:42:04.996Z,983.52
2017-05-12T03:43:15.346Z,983.55
2017-05-12T03:44:25.436Z,983.6
2017-05-12T03:45:35.169Z,983.63
2017-05-12T03:46:45.512Z,983.66
2017-05-12T03:47:55.862Z,983.67
2017-05-12T03:49:05.897Z,983.69
2017-05-12T03:50:16.253Z,983.69
2017-05-12T03:51:26.622Z,983.69
2017-05-12T03:52:37.002Z,983.69
2017-05-12T03:53:47.346Z,983.69
2017-05-12T03:54:57.691Z,983.71
2017-05-12T03:56:08.040Z,983.71
2017-05-12T03:57:18.094Z,983.72
2017-05-12T03:58:28.455Z,983.71
2017-05-12T03:59:38.494Z,983.73
2017-05-12T04:00:48.883Z,983.73
2017-05-12T04:01:59.299Z,983.75
2017-05-12T04:03:09.342Z,983.74
2017-05-12T04:04:19.395Z,983.71
2017-05-12T04:05:29.749Z,983.71
2017-05-12T04:06:40.105Z,983.71
2017-05-12T04:07:50.137Z,983.7
2017-05-12T04:09:00.182Z,983.72
2017-05-12T04:10:10.549Z,983.7
2017-05-12T04:11:20.916Z,983.72
2017-05-12T04:12:31.262Z,983.72
2017-05-12T04:13:41.654Z,983.72
2017-05-12T04:14:52.019Z,983.78
2017-05-12T04:16:02.054Z,983.79
2017-05-12T04:17:12.084Z,983.85
2017-05-12T04:18:22.432Z,983.89
2017-05-12T04:19:32.803Z,983.91
2017-05-12T04:20:43.147Z,983.91
2017-05-12T04:21:53.182Z,983.95
2017-05-12T04:23:03.226Z,983.99
2017-05-12T04:24:13.596Z,984.01
2017-05-12T04:25:23.952Z,984.04
2017-05-12T04:26:34.318Z,984.09
2017-05-12T04:27:44.355Z,984.15
2017-05-12T04:28:54.464Z,984.18
2017-05-12T04:30:04.816Z,984.17
2017-05-12T04:31:14.553Z,984.2
2017-05-12T04:32:24.605Z,984.23
2017-05-12T04:33:34.960Z,984.18
2017-05-12T04:34:45.317Z,984.15
2017-05-12T04:35:55.676Z,984.15
2017-05-12T04:37:05.415Z,984.18
2017-05-12T04:38:15.767Z,984.19
2017-05-12T04:39:25.858Z,984.2
2017-05-12T04:40:36.216Z,984.2
2017-05-12T04:41:46.262Z,984.21
2017-05-12T04:42:56.605Z,984.25
2017-05-12T04:44:06.970Z,984.31
2017-05-12T04:45:17.320Z,984.39
2017-05-12T04:46:27.348Z,984.44
2017-05-12T04:47:37.747Z,984.51
2017-05-12T04:48:48.124Z,984.6
2017-05-12T04:49:58.478Z,984.57
2017-05-12T04:51:08.848Z,984.52
2017-05-12T04:52:19.259Z,984.56
2017-05-12T04:53:29.626Z,984.58
2017-05-12T04:54:39.371Z,984.61
2017-05-12T04:55:49.409Z,984.63
2017-05-12T04:56:59.765Z,984.58
2017-05-12T04:58:09.810Z,984.58
2017-05-12T04:59:20.161Z,984.61
2017-05-12T05:00:30.520Z,984.6
2017-05-12T05:01:40.881Z,984.56
2017-05-12T05:02:51.240Z,984.58
2017-05-12T05:04:01.600Z,984.53
2017-05-12T05:05:11.648Z,984.57
2017-05-12T05:06:22.058Z,984.48
2017-05-12T05:07:32.417Z,984.47
2017-05-12T05:08:42.785Z,984.46
2017-05-12T05:09:52.884Z,984.44
2017-05-12T05:11:03.242Z,984.46
2017-05-12T05:12:13.603Z,984.44
2017-05-12T05:13:23.646Z,984.48
2017-05-12T05:14:33.997Z,984.48
2017-05-12T05:15:44.399Z,984.45
2017-05-12T05:16:54.745Z,984.49
2017-05-12T05:18:05.172Z,984.45
2017-05-12T05:19:15.229Z,984.47
2017-05-12T05:20:25.276Z,984.54
2017-05-12T05:21:35.633Z,984.61
2017-05-12T05:22:45.988Z,984.65
2017-05-12T05:23:56.404Z,984.63
2017-05-12T05:25:06.802Z,984.5
2017-05-12T05:26:17.187Z,984.51
2017-05-12T05:27:27.236Z,984.56
2017-05-12T05:28:37.299Z,984.59
2017-05-12T05:29:47.661Z,984.58
2017-05-12T05:30:58.027Z,984.65
2017-05-12T05:32:08.071Z,984.66
2017-05-12T05:33:18.109Z,984.69
2017-05-12T05:34:27.221Z,984.67
2017-05-12T05:35:37.584Z,984.69
2017-05-12T05:36:47.941Z,984.73
2017-05-12T05:37:58.288Z,984.73
2017-05-12T05:39:08.645Z,984.75
2017-05-12T05:40:18.679Z,984.81
2017-05-12T05:41:29.036Z,984.79
2017-05-12T05:42:39.383Z,984.82
2017-05-12T05:43:49.738Z,985.12
2017-05-12T05:45:00.089Z,985.23
2017-05-12T05:46:10.125Z,985.18
2017-05-12T05:47:20.477Z,985.11
2017-05-12T05:48:30.852Z,984.88
2017-05-12T05:49:40.891Z,985.03
2017-05-12T05:50:51.284Z,984.89
2017-05-12T05:52:01.633Z,984.87
2017-05-12T05:53:11.719Z,984.93
2017-05-12T05:54:21.757Z,985.11
2017-05-12T05:55:32.127Z,985.11
2017-05-12T05:56:42.489Z,985.13
2017-05-12T05:57:52.538Z,984.94
2017-05-12T05:59:02.949Z,984.93
2017-05-12T06:00:13.302Z,984.88
2017-05-12T06:01:23.668Z,984.88
2017-05-12T06:02:34.014Z,984.88
2017-05-12T06:03:44.377Z,984.87
2017-05-12T06:04:54.430Z,984.84
2017-05-12T06:06:04.780Z,984.89
2017-05-12T06:07:14.822Z,984.86
2017-05-12T06:08:25.198Z,984.9
2017-05-12T06:09:35.612Z,984.9
2017-05-12T06:10:45.976Z,984.93
2017-05-12T06:11:56.332Z,984.89
2017-05-12T06:13:06.374Z,984.89
2017-05-12T06:14:16.732Z,984.91
2017-05-12T06:15:27.092Z,984.93
2017-05-12T06:16:37.462Z,984.9
2017-05-12T06:17:47.824Z,984.9
2017-05-12T06:18:57.928Z,984.88
2017-05-12T06:20:08.285Z,984.87
2017-05-12T06:21:18.315Z,984.89
2017-05-12T06:22:28.678Z,984.89
2017-05-12T06:23:38.732Z,984.87
2017-05-12T06:24:49.091Z,984.88
2017-05-12T06:25:59.124Z,984.9
2017-05-12T06:27:09.187Z,984.91
2017-05-12T06:28:19.289Z,984.89
2017-05-12T06:29:29.651Z,984.87
2017-05-12T06:30:40.013Z,984.87
2017-05-12T06:31:50.380Z,984.89
2017-05-12T06:33:00.765Z,984.9
2017-05-12T06:34:11.173Z,984.94
2017-05-12T06:35:21.577Z,984.93
2017-05-12T06:36:31.688Z,984.94
2017-05-12T06:37:41.743Z,984.94
2017-05-12T06:38:51.823Z,984.91
2017-05-12T06:40:02.241Z,984.97
2017-05-12T06:41:12.615Z,984.98
2017-05-12T06:42:22.970Z,985.02
2017-05-12T06:43:33.018Z,985.08
2017-05-12T06:44:43.391Z,985.09
2017-05-12T06:45:53.439Z,985.1
2017-05-12T06:47:03.812Z,985.1
2017-05-12T06:48:14.183Z,985.18
2017-05-12T06:49:24.549Z,985.2
2017-05-12T06:50:34.938Z,985.2
2017-05-12T06:51:45.294Z,985.23
2017-05-12T06:52:55.668Z,985.24
2017-05-12T06:54:05.822Z,985.27
2017-05-12T06:55:16.196Z,985.27
2017-05-12T06:56:26.564Z,985.28
2017-05-12T06:57:36.618Z,985.3
2017-05-12T06:58:46.999Z,985.28
2017-05-12T06:59:57.375Z,985.32
2017-05-12T07:01:07.427Z,985.38
2017-05-12T07:02:17.478Z,985.41
2017-05-12T07:03:27.894Z,985.44
2017-05-12T07:04:38.263Z,985.48
2017-05-12T07:05:48.648Z,985.5
2017-05-12T07:06:59.029Z,985.5
2017-05-12T07:08:09.377Z,985.47
2017-05-12T07:09:19.767Z,985.44
2017-05-12T07:10:30.138Z,985.48
2017-05-12T07:11:40.503Z,985.4
2017-05-12T07:12:50.869Z,985.44
2017-05-12T07:14:01.251Z,985.45
2017-05-12T07:15:11.303Z,985.51
2017-05-12T07:16:21.668Z,985.48
2017-05-12T07:17:32.051Z,985.47
2017-05-12T07:18:42.440Z,985.49
2017-05-12T07:19:52.836Z,985.5
2017-05-12T07:21:02.907Z,985.52
2017-05-12T07:22:12.964Z,985.49
2017-05-12T07:23:23.003Z,985.44
2017-05-12T07:24:33.083Z,985.46
2017-05-12T07:25:43.466Z,985.44
2017-05-12T07:26:53.859Z,985.43
2017-05-12T07:28:03.923Z,985.48
2017-05-12T07:29:14.285Z,985.49
2017-05-12T07:30:24.336Z,985.56
2017-05-12T07:31:34.089Z,985.53
2017-05-12T07:32:44.500Z,985.51
2017-05-12T07:33:54.242Z,985.52
2017-05-12T07:35:04.282Z,985.53
2017-05-12T07:36:14.637Z,985.6
2017-05-12T07:37:25.030Z,985.65
2017-05-12T07:38:35.474Z,985.64
2017-05-12T07:39:45.534Z,985.68
2017-05-12T07:40:55.294Z,985.67
2017-05-12T07:42:05.676Z,985.71
2017-05-12T07:43:16.064Z,985.7
2017-05-12T07:44:26.485Z,985.75
2017-05-12T07:45:36.920Z,985.79
2017-05-12T07:46:47.295Z,985.85
2017-05-12T07:47:57.365Z,985.77
2017-05-12T07:49:07.735Z,985.87
2017-05-12T07:50:17.842Z,985.88
2017-05-12T07:51:28.225Z,985.91
2017-05-12T07:52:38.581Z,985.96
2017-05-12T07:53:48.953Z,985.91
2017-05-12T07:54:59.354Z,985.92
2017-05-12T07:56:09.700Z,985.95
2017-05-12T07:57:20.075Z,985.93
2017-05-12T07:58:30.133Z,985.94
2017-05-12T07:59:39.890Z,985.95
2017-05-12T08:00:50.247Z,985.95
2017-05-12T08:02:00.651Z,985.95
2017-05-12T08:03:11.034Z,985.94
2017-05-12T08:04:21.419Z,985.96
2017-05-12T08:05:31.791Z,985.98
2017-05-12T08:06:42.175Z,985.98
2017-05-12T08:07:52.689Z,986.02
2017-05-12T08:09:02.756Z,986.02
2017-05-12T08:10:12.836Z,986.04
2017-05-12T08:11:23.215Z,985.99
2017-05-12T08:12:33.703Z,986.05
2017-05-12T08:13:44.161Z,986.04
2017-05-12T08:14:54.539Z,986.04
2017-05-12T08:58:00.181Z,986.22
2017-05-12T08:59:10.561Z,986.22
2017-05-12T09:00:20.631Z,986.21
2017-05-12T09:01:31.005Z,986.24
2017-05-12T09:02:41.110Z,986.23
2017-05-12T09:03:51.498Z,986.27
2017-05-12T09:05:01.887Z,986.24
2017-05-12T09:06:12.243Z,986.26
2017-05-12T09:07:22.632Z,986.23
2017-05-12T09:08:32.982Z,986.19
2017-05-12T09:09:43.340Z,986.18
2017-05-12T09:10:53.726Z,986.26
2017-05-12T09:12:04.080Z,986.31
2017-05-12T09:13:33.643Z,986.24
2017-05-12T09:14:44.014Z,986.36
2017-05-12T09:15:54.374Z,986.27
2017-05-12T09:17:04.761Z,986.22
2017-05-12T09:18:15.424Z,986.22
2017-05-12T09:19:25.652Z,986.25
2017-05-12T09:20:36.036Z,986.34
2017-05-12T09:21:46.563Z,986.23
2017-05-12T09:22:56.926Z,986.29
2017-05-12T09:24:07.378Z,986.3
2017-05-12T09:25:17.099Z,986.27
2017-05-12T09:26:27.141Z,986.32
2017-05-12T09:27:37.194Z,986.36
2017-05-12T09:28:47.575Z,986.35
2017-05-12T09:29:57.957Z,986.34
2017-05-12T09:31:08.339Z,986.45
2017-05-12T09:32:18.752Z,986.42
2017-05-12T09:33:28.812Z,986.49
2017-05-12T09:34:39.189Z,986.42
2017-05-12T09:35:49.562Z,986.41
2017-05-12T09:36:59.928Z,986.36
2017-05-12T09:38:10.304Z,986.42
2017-05-12T09:39:20.680Z,986.43
2017-05-12T09:40:30.424Z,986.34
2017-05-12T09:41:40.794Z,986.4
2017-05-12T09:42:51.152Z,986.37
2017-05-12T09:44:01.213Z,986.38
2017-05-12T09:45:11.283Z,986.42
2017-05-12T09:46:21.015Z,986.4
2017-05-12T09:47:31.081Z,986.42
2017-05-12T09:48:41.143Z,986.37
2017-05-12T09:49:51.506Z,986.42
2017-05-12T09:51:01.881Z,986.33
2017-05-12T09:52:12.243Z,986.39
2017-05-12T09:53:22.281Z,986.36
2017-05-12T09:54:32.342Z,986.42
2017-05-12T09:55:42.404Z,986.45
2017-05-12T09:56:52.448Z,986.49
2017-05-12T09:58:02.826Z,986.43
2017-05-12T09:59:13.206Z,986.45
2017-05-12T10:00:23.603Z,986.42
2017-05-12T10:01:33.985Z,986.4
2017-05-12T10:02:44.047Z,986.44
2017-05-12T10:03:54.106Z,986.44
2017-05-12T10:05:04.181Z,986.43
2017-05-12T10:06:14.546Z,986.4
2017-05-12T10:07:24.603Z,986.36
2017-05-12T10:08:34.663Z,986.4
2017-05-12T10:09:45.064Z,986.4
2017-05-12T10:10:55.448Z,986.44
2017-05-12T10:12:05.191Z,986.43
2017-05-12T10:13:15.564Z,986.45
2017-05-12T10:14:25.915Z,986.48
2017-05-12T10:15:36.277Z,986.51
2017-05-12T10:16:46.639Z,986.55
2017-05-12T10:17:56.674Z,986.53
2017-05-12T10:19:07.039Z,986.57
2017-05-12T10:20:17.421Z,986.56
2017-05-12T10:21:27.804Z,986.56
2017-05-12T10:22:37.885Z,986.64
2017-05-12T10:23:48.242Z,986.62
2017-05-12T10:24:58.607Z,986.6
2017-05-12T10:26:08.957Z,986.6
2017-05-12T10:27:18.997Z,986.63
2017-05-12T10:28:29.372Z,986.65
2017-05-12T10:29:39.414Z,986.65
2017-05-12T10:30:49.483Z,986.66
2017-05-12T10:31:59.528Z,986.67
2017-05-12T10:33:09.292Z,986.69
2017-05-12T10:34:19.665Z,986.71
2017-05-12T10:35:30.032Z,986.8
2017-05-12T10:36:40.389Z,986.79
2017-05-12T10:37:50.769Z,986.76
2017-05-12T10:39:01.146Z,986.74
2017-05-12T10:40:11.218Z,986.74
2017-05-12T10:41:21.594Z,986.77
2017-05-12T10:42:31.959Z,986.77
2017-05-12T10:43:42.378Z,986.79
2017-05-12T10:44:52.764Z,986.76
2017-05-12T10:46:02.835Z,986.76
2017-05-12T10:47:13.203Z,986.72
2017-05-12T10:48:23.269Z,986.72
2017-05-12T10:49:33.650Z,986.76
2017-05-12T10:50:44.032Z,986.72
2017-05-12T10:51:54.378Z,986.69
2017-05-12T10:53:04.425Z,986.73
2017-05-12T10:54:14.248Z,986.72
2017-05-12T10:55:24.631Z,986.77
2017-05-12T10:56:34.701Z,986.72
2017-05-12T10:57:45.150Z,986.71
2017-05-12T10:58:55.195Z,986.73
2017-05-12T11:00:05.644Z,986.73
2017-05-12T11:01:16.022Z,986.73
2017-05-12T11:02:26.397Z,986.79
2017-05-12T11:03:36.767Z,986.8
2017-05-12T11:04:47.164Z,986.76
2017-05-12T11:05:57.543Z,986.71
2017-05-12T11:07:07.906Z,986.76
2017-05-12T11:08:18.294Z,986.71
2017-05-12T11:09:28.337Z,986.8
2017-05-12T11:10:38.700Z,986.79
2017-05-12T11:11:49.039Z,986.66
2017-05-12T11:12:59.411Z,986.71
2017-05-12T11:14:09.464Z,986.74
2017-05-12T11:15:19.519Z,986.76
2017-05-12T11:16:29.284Z,986.71
2017-05-12T11:17:39.661Z,986.68
2017-05-12T11:18:49.725Z,986.72
2017-05-12T11:19:59.800Z,986.66
2017-05-12T11:21:10.169Z,986.69
2017-05-12T11:22:20.535Z,986.7
2017-05-12T11:23:30.576Z,986.67
2017-05-12T11:24:40.952Z,986.66
2017-05-12T11:25:51.300Z,986.67
2017-05-12T11:27:01.688Z,986.74
2017-05-12T11:28:11.731Z,986.72
2017-05-12T11:29:22.117Z,986.73
2017-05-12T11:30:32.499Z,986.74
2017-05-12T11:31:42.567Z,986.72
2017-05-12T11:32:52.936Z,986.72
2017-05-12T11:34:03.005Z,986.72
2017-05-12T11:35:13.355Z,986.69
2017-05-12T11:36:23.095Z,986.69
2017-05-12T11:37:33.466Z,986.81
2017-05-12T11:38:43.868Z,986.73
2017-05-12T11:39:54.245Z,986.73
2017-05-12T11:41:04.324Z,986.77
2017-05-12T11:42:14.402Z,986.83
2017-05-12T11:43:24.784Z,986.78
2017-05-12T11:44:35.159Z,986.82
2017-05-12T11:45:45.526Z,986.79
2017-05-12T11:46:55.578Z,986.78
2017-05-12T11:48:05.620Z,986.81
2017-05-12T11:49:15.980Z,986.79
2017-05-12T11:50:26.064Z,986.74
2017-05-12T11:51:36.426Z,986.78
2017-05-12T11:52:46.482Z,986.7
2017-05-12T11:53:56.838Z,986.69
2017-05-12T11:55:07.215Z,986.69
2017-05-12T11:56:17.802Z,986.66
2017-05-12T11:57:27.896Z,986.74
2017-05-12T11:58:38.312Z,986.71
2017-05-12T11:59:48.677Z,986.67
2017-05-12T12:00:58.731Z,986.73
2017-05-12T12:02:08.795Z,986.75
2017-05-12T12:03:19.147Z,986.76
2017-05-12T12:04:29.522Z,986.77
2017-05-12T12:05:39.253Z,986.71
2017-05-12T12:06:49.848Z,986.78
2017-05-12T12:08:00.240Z,986.74
2017-05-12T12:09:10.629Z,986.75
2017-05-12T12:10:20.997Z,986.71
2017-05-12T12:11:31.462Z,986.69
2017-05-12T12:12:41.561Z,986.71
2017-05-12T12:13:51.616Z,986.74
2017-05-12T12:15:01.972Z,986.79
2017-05-12T12:16:12.343Z,986.68
2017-05-12T12:17:22.714Z,986.74
2017-05-12T12:18:32.766Z,986.73
2017-05-12T12:19:42.843Z,986.77
2017-05-12T12:20:53.227Z,986.82
2017-05-12T12:22:03.597Z,986.74
2017-05-12T12:23:13.983Z,986.76
2017-05-12T12:24:24.367Z,986.71
2017-05-12T12:25:34.721Z,986.71
2017-05-12T12:26:45.074Z,986.7
2017-05-12T12:27:55.439Z,986.7
2017-05-12T12:29:05.527Z,986.72
2017-05-12T12:30:15.908Z,986.66
2017-05-12T12:31:26.285Z,986.61
2017-05-12T12:32:36.025Z,986.68
2017-05-12T12:33:46.448Z,986.68
2017-05-12T12:34:56.534Z,986.63
2017-05-12T12:36:06.907Z,986.63
2017-05-12T12:37:17.291Z,986.66
2017-05-12T12:38:27.672Z,986.66
2017-05-12T12:39:37.433Z,986.69
2017-05-12T12:40:47.494Z,986.71
2017-05-12T12:41:57.254Z,986.7
2017-05-12T12:43:07.311Z,986.67
2017-05-12T12:44:17.691Z,986.59
2017-05-12T12:45:28.073Z,986.55
2017-05-12T12:46:38.457Z,986.53
2017-05-12T12:47:48.830Z,986.52
2017-05-12T12:48:58.878Z,986.55
2017-05-12T12:50:09.242Z,986.54
2017-05-12T12:51:19.621Z,986.56
2017-05-12T12:52:29.985Z,986.57
2017-05-12T12:53:40.341Z,986.49
2017-05-12T12:54:50.733Z,986.5
2017-05-12T12:56:01.103Z,986.49
2017-05-12T12:57:11.460Z,986.46
2017-05-12T12:58:21.519Z,986.49
2017-05-12T12:59:31.884Z,986.53
2017-05-12T13:00:42.253Z,986.54
2017-05-12T13:01:52.638Z,986.53
2017-05-12T13:03:03.036Z,986.53
2017-05-12T13:04:13.096Z,986.53
2017-05-12T13:05:23.154Z,986.53
2017-05-12T13:06:33.528Z,986.56
2017-05-12T13:07:43.571Z,986.51
2017-05-12T13:08:53.327Z,986.47
2017-05-12T13:10:03.692Z,986.57
2017-05-12T13:11:14.071Z,986.52
2017-05-12T13:12:24.444Z,986.49
2017-05-12T13:13:34.880Z,986.48
2017-05-12T13:14:44.926Z,986.51
2017-05-12T13:15:55.313Z,986.48
2017-05-12T13:17:05.697Z,986.46
2017-05-12T13:18:16.069Z,986.43
2017-05-12T13:19:26.134Z,986.49
2017-05-12T13:20:36.532Z,986.41
2017-05-12T13:21:46.967Z,986.38
2017-05-12T13:22:57.010Z,986.38
2017-05-12T13:24:07.375Z,986.37
2017-05-12T13:25:17.757Z,986.38
2017-05-12T13:26:28.127Z,986.4
2017-05-12T13:27:38.186Z,986.43
2017-05-12T13:28:48.567Z,986.44
2017-05-12T13:29:58.614Z,986.37
2017-05-12T13:31:08.993Z,986.37
2017-05-12T13:32:19.131Z,986.36
2017-05-12T13:33:28.877Z,986.32
2017-05-12T13:34:38.923Z,986.33
2017-05-12T13:35:49.282Z,986.32
2017-05-12T13:36:59.345Z,986.34
2017-05-12T13:38:09.399Z,986.36
2017-05-12T13:39:19.769Z,986.32
2017-05-12T13:40:30.138Z,986.35
2017-05-12T13:41:40.192Z,986.28
2017-05-12T13:42:50.244Z,986.27
2017-05-12T13:44:00.322Z,986.34
2017-05-12T13:45:10.697Z,986.25
2017-05-12T13:46:21.114Z,986.22
2017-05-12T13:47:31.489Z,986.26
2017-05-12T13:48:41.872Z,986.22
2017-05-12T13:49:52.222Z,986.25
2017-05-12T13:51:02.640Z,986.26
2017-05-12T13:52:12.696Z,986.27
2017-05-12T13:53:23.067Z,986.24
2017-05-12T13:54:33.425Z,986.2
2017-05-12T13:55:43.798Z,986.22
2017-05-12T13:56:54.167Z,986.24
2017-05-12T13:58:04.557Z,986.24
2017-05-12T13:59:14.939Z,986.22
2017-05-12T14:00:25.319Z,986.22
2017-05-12T14:01:35.744Z,986.18
2017-05-12T14:02:46.117Z,986.23
2017-05-12T14:03:56.496Z,986.23
2017-05-12T14:05:06.877Z,986.21
2017-05-12T14:06:17.297Z,986.17
2017-05-12T14:07:27.668Z,986.18
2017-05-12T14:08:38.046Z,986.17
2017-05-12T14:09:48.435Z,986.14
2017-05-12T14:10:58.801Z,986.22
2017-05-12T14:12:08.876Z,986.13
2017-05-12T14:13:19.245Z,986.15
2017-05-12T14:14:29.677Z,986.17
2017-05-12T14:15:39.721Z,986.16
2017-05-12T14:16:49.783Z,986.16
2017-05-12T14:17:59.849Z,986.13
2017-05-12T14:19:10.226Z,986.12
2017-05-12T14:20:20.282Z,986.21
2017-05-12T14:21:30.026Z,986.14
2017-05-12T14:22:40.386Z,986.14
2017-05-12T14:23:50.794Z,986.18
2017-05-12T14:25:01.154Z,986.14
2017-05-12T14:26:11.521Z,986.13
2017-05-12T14:27:21.872Z,986.13
2017-05-12T14:28:32.244Z,986.13
2017-05-12T14:29:42.836Z,986.14
2017-05-12T14:30:53.202Z,986.12
2017-05-12T14:32:03.573Z,986.16
2017-05-12T14:33:13.946Z,986.13
2017-05-12T14:34:24.310Z,986.11
2017-05-12T14:35:34.377Z,986.15
2017-05-12T14:36:44.765Z,986.14
2017-05-12T14:37:55.127Z,986.13
2017-05-12T14:39:05.217Z,986.15
2017-05-12T14:40:14.339Z,986.17
2017-05-12T14:41:24.404Z,986.21
2017-05-12T14:42:34.778Z,986.22
2017-05-12T14:43:45.176Z,986.21
2017-05-12T14:44:55.230Z,986.17
2017-05-12T14:46:05.619Z,986.17
2017-05-12T14:47:15.992Z,986.19
2017-05-12T14:48:26.061Z,986.19
2017-05-12T14:49:36.462Z,986.24
2017-05-12T14:50:47.054Z,986.29
2017-05-12T14:51:57.122Z,986.27
2017-05-12T14:53:07.495Z,986.24
2017-05-12T14:54:17.861Z,986.25
2017-05-12T14:55:28.228Z,986.3
2017-05-12T14:56:38.321Z,986.31
2017-05-12T14:57:48.381Z,986.3
2017-05-12T14:58:58.749Z,986.29
2017-05-12T15:00:08.813Z,986.28
2017-05-12T15:01:19.199Z,986.25
2017-05-12T15:02:29.258Z,986.26
2017-05-12T15:03:39.334Z,986.27
2017-05-12T15:04:49.090Z,986.28
2017-05-12T15:05:59.471Z,986.28
2017-05-12T15:07:09.837Z,986.28
2017-05-12T15:08:20.200Z,986.31
2017-05-12T15:09:30.273Z,986.29
2017-05-12T15:10:40.676Z,986.35
2017-05-12T15:11:50.732Z,986.29
2017-05-12T15:13:00.787Z,986.32
2017-05-12T15:14:10.859Z,986.33
2017-05-12T15:15:21.223Z,986.32
2017-05-12T15:16:31.584Z,986.35
2017-05-12T15:17:41.954Z,986.33
2017-05-12T15:18:52.341Z,986.35
2017-05-12T15:20:02.713Z,986.38
2017-05-12T15:21:12.767Z,986.39
2017-05-12T15:22:22.817Z,986.36
2017-05-12T15:23:32.568Z,986.34
2017-05-12T15:24:42.648Z,986.35
2017-05-12T15:25:52.079Z,986.3
2017-05-12T15:27:02.467Z,986.27
2017-05-12T15:28:12.523Z,986.25
2017-05-12T15:29:22.873Z,986.3
2017-05-12T15:30:32.906Z,986.28
2017-05-12T15:31:42.649Z,986.27
2017-05-12T15:32:53.039Z,986.25
2017-05-12T15:34:03.413Z,986.23
2017-05-12T15:35:13.806Z,986.22
2017-05-12T15:36:24.192Z,986.21
2017-05-12T15:37:34.572Z,986.23
2017-05-12T15:38:44.944Z,986.23
2017-05-12T15:39:55.067Z,986.21
2017-05-12T15:41:05.121Z,986.21
2017-05-12T15:42:15.510Z,986.23
2017-05-12T15:43:25.892Z,986.23
2017-05-12T15:44:36.494Z,986.23
2017-05-12T15:45:46.560Z,986.22
2017-05-12T15:46:56.599Z,986.18
2017-05-12T15:48:06.978Z,986.22
2017-05-12T15:49:17.356Z,986.27
2017-05-12T15:50:27.420Z,986.23